KFST/FST METAR and TAF weather

Enter ICAO airport designator
Station Type Date Time Source
KFST METAR 2019/12/08 23:53 UTC NOAA

KFST 082353Z AUTO 28007KT 10SM CLR 22/05 A2991 RMK AO2 SLP092 T02220050 10272 20222 50001


Station Type Date Time Source
KFST Decoded METAR 2019/12/08 23:53 UTC NOAA

FORT STOCKTON PECOS CO AIRPORT , TX, United States (KFST) 30-55N 102-55W 918M
Dec 08, 2019 - 06:53 PM EST / 2019.12.08 2353 UTC
Wind: from the W (280 degrees) at 8 MPH (7 KT):0
Visibility: 10 mile(s):0
Sky conditions: clear
Temperature: 72.0 F (22.2 C)
Dew Point: 41.0 F (5.0 C)
Relative Humidity: 32%
Pressure (altimeter): 29.91 in. Hg (1012 hPa)
Pressure tendency: 0.00 inches (0.1 hPa) higher than three hours ago
ob: KFST 082353Z AUTO 28007KT 10SM CLR 22/05 A2991 RMK AO2 SLP092 T02220050 10272 20222 50001
cycle: 0

Station Type Date Time Source
KFST TAF 2019/12/08 22:59 UTC NOAA

TAF
AMD KFST 082159Z 0822/0918 27015G25KT P6SM BKN250
FM090100 25010KT P6SM BKN250

Example: see airport list